KOLG

Solon Springs Municipal Airport

Solon Springs, Wisconsin, USA
METAR KOLG 170055Z AUTO 27006KT 10SM CLR 01/M09 A3006 RMK AO1
Observed Flight Rules
Dec-17 @ 00:55 UTC (21 minutes ago) Visual Flight Rules
Wind Visibility Clouds
270° at 6 knots 10 miles
  • Clear skies
Temperatures Readings
Current 1°C / 34°F
Dewpoint -9°C / 16°F
Humidity 48%
Altimeter 30.06" Hg
Pressure 1018 hPa
Elevation 336
METAR KOLG 170055Z AUTO 27006KT 10SM CLR 01/M09 A3006 RMK AO1
Observed Flight Rules
Dec-17 @ 00:55 UTC
(21 minutes ago)
VFR
Wind Visibility
270° at 6 knots 10 miles
Clouds
  • Clear skies
Temperature Dewpoint
1°C / 34°F -9°C / 16°F
Humidity Altimeter Pressure
48% 30.06" Hg 1018 hPa